createdAt,value
2022-08-12T00:00:35.242Z,18.70
2022-08-12T00:03:21.242Z,18.70
2022-08-12T00:06:07.673Z,18.60
2022-08-12T00:08:56.233Z,18.60
2022-08-12T00:11:42.311Z,18.60
2022-08-12T00:14:27.984Z,18.40
2022-08-12T00:17:13.127Z,18.50
2022-08-12T00:19:58.213Z,18.40
2022-08-12T00:22:43.354Z,18.40
2022-08-12T00:26:01.348Z,18.40
2022-08-12T00:28:33.835Z,18.50
2022-08-12T00:31:18.921Z,18.50
2022-08-12T00:34:05.216Z,18.50
2022-08-12T00:36:50.725Z,18.50
2022-08-12T00:39:36.061Z,18.50
2022-08-12T00:42:11.611Z,18.40
2022-08-12T00:44:43.324Z,18.40
2022-08-12T00:47:11.635Z,18.30
2022-08-12T00:49:53.738Z,18.20
2022-08-12T00:52:20.538Z,18.20
2022-08-12T00:54:57.108Z,18.10
2022-08-12T00:57:31.974Z,18.10
2022-08-12T01:00:21.439Z,18.10
2022-08-12T01:02:52.114Z,18.00
2022-08-12T01:05:40.853Z,17.90
2022-08-12T01:08:25.992Z,17.90
2022-08-12T01:11:11.817Z,17.90
2022-08-12T01:13:49.025Z,17.90
2022-08-12T01:16:17.588Z,17.90
2022-08-12T01:18:44.690Z,17.80
2022-08-12T01:21:39.096Z,17.90
2022-08-12T01:24:30.917Z,17.90
2022-08-12T01:26:58.844Z,17.80
2022-08-12T01:29:32.600Z,17.80
2022-08-12T01:32:00.964Z,17.80
2022-08-12T01:34:39.193Z,17.80
2022-08-12T01:37:09.754Z,17.80
2022-08-12T01:40:35.376Z,17.80
2022-08-12T01:42:45.950Z,17.70
2022-08-12T01:45:13.097Z,17.70
2022-08-12T01:47:51.199Z,17.60
2022-08-12T01:50:21.806Z,17.40
2022-08-12T01:52:56.588Z,17.40
2022-08-12T01:55:28.889Z,17.30
2022-08-12T01:58:24.286Z,17.30
2022-08-12T02:01:03.758Z,17.30
2022-08-12T02:04:28.182Z,17.30
2022-08-12T02:07:32.826Z,17.30
2022-08-12T02:10:50.084Z,17.30
2022-08-12T02:13:57.426Z,17.30
2022-08-12T02:16:40.164Z,17.30
2022-08-12T02:19:23.460Z,17.30
2022-08-12T02:22:17.978Z,17.20
2022-08-12T02:24:45.741Z,17.20
2022-08-12T02:27:13.416Z,17.20
2022-08-12T02:29:40.375Z,17.20
2022-08-12T02:32:07.574Z,17.20
2022-08-12T02:34:34.641Z,17.20
2022-08-12T02:37:02.534Z,17.20
2022-08-12T02:39:31.361Z,17.20
2022-08-12T02:41:58.626Z,17.20
2022-08-12T02:44:25.477Z,17.10
2022-08-12T02:46:54.706Z,17.00
2022-08-12T02:49:31.649Z,16.90
2022-08-12T02:52:01.396Z,16.80
2022-08-12T02:54:28.113Z,16.80
2022-08-12T02:56:54.833Z,16.80
2022-08-12T02:59:25.029Z,16.60
2022-08-12T03:01:57.075Z,16.60
2022-08-12T03:04:26.664Z,16.60
2022-08-12T03:07:01.231Z,16.50
2022-08-12T03:09:39.084Z,16.60
2022-08-12T03:12:20.227Z,16.60
2022-08-12T03:14:47.015Z,16.60
2022-08-12T03:17:25.911Z,16.50
2022-08-12T03:20:09.566Z,16.50
2022-08-12T03:22:40.469Z,16.50
2022-08-12T03:25:10.189Z,16.50
2022-08-12T03:27:39.308Z,16.50
2022-08-12T03:30:06.759Z,16.40
2022-08-12T03:32:38.245Z,16.40
2022-08-12T03:35:07.911Z,16.30
2022-08-12T03:37:35.462Z,16.20
2022-08-12T03:40:02.323Z,16.30
2022-08-12T03:43:05.792Z,16.20
2022-08-12T03:45:52.682Z,16.20
2022-08-12T03:48:38.015Z,16.10
2022-08-12T03:51:23.728Z,16.00
2022-08-12T03:54:11.334Z,15.90
2022-08-12T03:56:56.790Z,15.90
2022-08-12T03:59:41.784Z,15.90
2022-08-12T04:02:16.066Z,15.80
2022-08-12T04:04:45.633Z,15.90
2022-08-12T04:07:12.861Z,15.90
2022-08-12T04:09:40.964Z,15.80
2022-08-12T04:12:26.529Z,15.80
2022-08-12T04:14:53.765Z,15.70
2022-08-12T04:17:20.475Z,15.60
2022-08-12T04:19:48.357Z,15.60
2022-08-12T04:22:15.817Z,15.50
2022-08-12T04:24:42.889Z,15.60
2022-08-12T04:27:14.441Z,15.60
2022-08-12T04:30:29.550Z,15.70
2022-08-12T04:32:28.095Z,15.60
2022-08-12T04:34:55.230Z,15.50
2022-08-12T04:37:22.032Z,15.40
2022-08-12T04:39:49.034Z,15.40
2022-08-12T04:42:16.206Z,15.40
2022-08-12T04:44:43.317Z,15.40
2022-08-12T04:47:15.145Z,15.40
2022-08-12T04:49:43.172Z,15.40
2022-08-12T04:52:10.020Z,15.30
2022-08-12T04:54:37.764Z,15.40
2022-08-12T04:57:05.906Z,15.40
2022-08-12T04:59:46.733Z,15.40
2022-08-12T05:02:16.935Z,15.50
2022-08-12T05:04:50.077Z,15.50
2022-08-12T05:07:16.931Z,15.50
2022-08-12T05:10:00.692Z,15.40
2022-08-12T05:12:51.382Z,15.40
2022-08-12T05:15:27.491Z,15.60
2022-08-12T05:17:56.346Z,15.90
2022-08-12T05:20:27.053Z,16.10
2022-08-12T05:23:15.432Z,16.40
2022-08-12T05:25:43.290Z,16.80
2022-08-12T05:28:10.366Z,17.20
2022-08-12T05:30:37.148Z,17.50
2022-08-12T05:33:06.816Z,17.80
2022-08-12T05:35:36.977Z,18.00
2022-08-12T05:38:23.160Z,18.20
2022-08-12T05:40:51.057Z,18.40
2022-08-12T05:43:18.967Z,18.60
2022-08-12T05:45:46.297Z,18.90
2022-08-12T05:48:13.685Z,19.10
2022-08-12T05:50:41.264Z,19.30
2022-08-12T05:53:08.150Z,19.40
2022-08-12T05:55:35.444Z,19.50
2022-08-12T05:58:03.007Z,19.60
2022-08-12T06:00:31.884Z,19.70
2022-08-12T06:03:01.934Z,19.80
2022-08-12T06:05:43.263Z,19.80
2022-08-12T06:08:21.420Z,19.80
2022-08-12T06:10:50.381Z,20.10
2022-08-12T06:13:28.409Z,20.20
2022-08-12T06:16:04.952Z,20.40
2022-08-12T06:18:31.737Z,20.50
2022-08-12T06:21:01.941Z,20.60
2022-08-12T06:23:29.732Z,20.80
2022-08-12T06:25:56.740Z,20.90
2022-08-12T06:28:23.548Z,21.00
2022-08-12T06:31:14.974Z,21.10
2022-08-12T06:33:57.793Z,21.00
2022-08-12T06:36:29.347Z,21.10
2022-08-12T06:38:57.000Z,21.20
2022-08-12T06:42:10.747Z,21.30
2022-08-12T06:44:29.014Z,21.40
2022-08-12T06:46:58.332Z,21.50
2022-08-12T06:49:25.365Z,21.50
2022-08-12T06:51:56.779Z,21.60
2022-08-12T06:54:30.943Z,21.60
2022-08-12T06:57:04.884Z,21.50
2022-08-12T06:59:48.579Z,21.60
2022-08-12T07:02:15.460Z,21.60
2022-08-12T07:04:43.107Z,21.50
2022-08-12T07:07:10.390Z,21.50
2022-08-12T07:10:03.674Z,21.50
2022-08-12T07:12:28.034Z,21.50
2022-08-12T07:14:56.717Z,21.40
2022-08-12T07:17:23.654Z,21.40
2022-08-12T07:19:51.951Z,21.40
2022-08-12T07:22:19.078Z,21.30
2022-08-12T07:25:05.827Z,21.20
2022-08-12T07:27:40.814Z,21.30
2022-08-12T07:30:09.795Z,21.40
2022-08-12T07:32:36.771Z,21.20
2022-08-12T07:35:04.187Z,21.20
2022-08-12T07:37:31.443Z,21.00
2022-08-12T07:40:00.456Z,20.80
2022-08-12T07:42:28.712Z,20.70
2022-08-12T07:44:56.605Z,20.50
2022-08-12T07:47:24.088Z,20.60
2022-08-12T07:50:04.669Z,20.60
2022-08-12T07:52:34.294Z,20.50
2022-08-12T07:55:01.094Z,20.60
2022-08-12T07:57:27.863Z,20.60
2022-08-12T07:59:55.558Z,20.60
2022-08-12T08:02:26.680Z,20.60
2022-08-12T08:04:56.701Z,20.80
2022-08-12T08:07:24.179Z,20.90
2022-08-12T08:09:58.388Z,21.10
2022-08-12T08:12:45.087Z,21.10
2022-08-12T08:15:11.898Z,21.20
2022-08-12T08:17:38.712Z,21.50
2022-08-12T08:20:06.334Z,21.50
2022-08-12T08:22:41.023Z,21.70
2022-08-12T08:25:34.758Z,22.00
2022-08-12T08:27:56.754Z,22.20
2022-08-12T08:30:23.954Z,22.40
2022-08-12T08:32:50.665Z,22.60
2022-08-12T08:35:17.476Z,22.80
2022-08-12T08:37:48.344Z,22.90
2022-08-12T08:40:33.529Z,23.00
2022-08-12T08:43:00.257Z,23.20
2022-08-12T08:45:28.387Z,23.30
2022-08-12T08:47:59.628Z,23.50
2022-08-12T08:50:27.273Z,23.60
2022-08-12T08:52:53.994Z,23.70
2022-08-12T08:55:25.674Z,23.80
2022-08-12T08:58:00.253Z,24.00
2022-08-12T09:00:27.051Z,24.20
2022-08-12T09:02:59.419Z,24.30
2022-08-12T09:05:27.420Z,24.50
2022-08-12T09:08:08.904Z,24.50
2022-08-12T09:10:45.047Z,24.60
2022-08-12T09:14:12.209Z,24.60
2022-08-12T09:16:21.406Z,24.70
2022-08-12T09:21:54.274Z,25.00
2022-08-12T09:24:22.139Z,24.90
2022-08-12T09:26:49.065Z,24.80
2022-08-12T09:29:18.289Z,24.60
2022-08-12T09:32:06.913Z,24.40
2022-08-12T09:34:36.212Z,24.20
2022-08-12T09:37:20.049Z,23.90
2022-08-12T09:40:06.092Z,23.70
2022-08-12T09:46:19.934Z,23.00
2022-08-12T09:48:35.202Z,22.80
2022-08-12T09:51:02.783Z,22.80
2022-08-12T09:53:36.205Z,22.60
2022-08-12T09:56:56.705Z,22.60
2022-08-12T09:58:58.289Z,22.50
2022-08-12T10:01:34.638Z,22.70
2022-08-12T10:04:14.947Z,22.80
2022-08-12T10:06:55.217Z,23.00
2022-08-12T10:09:28.844Z,23.00
2022-08-12T10:12:31.297Z,23.00
2022-08-12T10:16:02.429Z,22.90
2022-08-12T10:18:06.838Z,23.00
2022-08-12T10:20:34.288Z,23.00
2022-08-12T10:23:01.825Z,23.10
2022-08-12T10:26:34.883Z,23.10
2022-08-12T10:29:02.761Z,23.10
2022-08-12T10:32:20.086Z,23.10
2022-08-12T10:34:24.024Z,23.00
2022-08-12T10:36:58.610Z,23.00
2022-08-12T10:40:02.150Z,22.90
2022-08-12T10:42:38.357Z,22.90
2022-08-12T10:45:06.861Z,22.80
2022-08-12T10:48:19.835Z,22.80
2022-08-12T10:50:29.616Z,22.80
2022-08-12T10:53:08.898Z,22.90
2022-08-12T10:55:43.832Z,22.90
2022-08-12T10:58:14.486Z,23.00
2022-08-12T11:01:48.888Z,22.90
2022-08-12T11:04:27.683Z,22.90
2022-08-12T11:07:08.264Z,22.80
2022-08-12T11:09:51.411Z,22.80
2022-08-12T11:12:35.771Z,22.70
2022-08-12T11:14:56.745Z,22.70
2022-08-12T11:17:43.462Z,22.70
2022-08-12T11:20:15.173Z,22.80
2022-08-12T11:22:42.395Z,22.70
2022-08-12T11:25:24.940Z,22.80
2022-08-12T11:28:13.520Z,22.80
2022-08-12T11:30:40.645Z,22.80
2022-08-12T11:33:11.734Z,22.80
2022-08-12T11:35:41.532Z,22.80
2022-08-12T11:38:12.812Z,22.70
2022-08-12T11:40:42.559Z,22.80
2022-08-12T11:43:19.111Z,23.00
2022-08-12T11:45:47.428Z,23.00
2022-08-12T11:48:15.367Z,23.00
2022-08-12T11:50:45.505Z,23.00
2022-08-12T11:53:58.625Z,23.00
2022-08-12T11:55:58.956Z,23.00
2022-08-12T11:58:39.380Z,22.90
2022-08-12T12:02:01.208Z,22.90
2022-08-12T12:03:59.292Z,22.90
2022-08-12T12:06:26.058Z,22.90
2022-08-12T12:08:53.913Z,22.90
2022-08-12T12:11:21.588Z,22.80
2022-08-12T12:14:08.743Z,22.80
2022-08-12T12:16:39.591Z,22.60
2022-08-12T12:19:08.830Z,22.60
2022-08-12T12:21:48.274Z,22.50
2022-08-12T12:24:21.068Z,22.50
2022-08-12T12:27:00.871Z,22.50
2022-08-12T12:30:18.525Z,22.50
2022-08-12T12:32:18.971Z,22.60
2022-08-12T12:35:13.520Z,22.60
2022-08-12T12:38:04.252Z,22.60
2022-08-12T12:40:20.043Z,22.50
2022-08-12T12:42:54.474Z,22.40
2022-08-12T12:45:25.894Z,22.40
2022-08-12T12:47:56.113Z,22.20
2022-08-12T12:50:35.315Z,21.90
2022-08-12T12:53:06.147Z,21.50
2022-08-12T12:55:35.767Z,21.20
2022-08-12T12:58:04.847Z,21.00
2022-08-12T13:00:32.776Z,20.90
2022-08-12T13:03:00.109Z,20.80
2022-08-12T13:05:42.442Z,20.70
2022-08-12T13:08:27.978Z,20.60
2022-08-12T13:10:56.067Z,20.40
2022-08-12T13:14:08.995Z,20.10
2022-08-12T13:16:14.233Z,19.90
2022-08-12T13:18:41.252Z,19.80
2022-08-12T13:21:15.629Z,19.70
2022-08-12T13:23:57.860Z,19.60
2022-08-12T13:26:24.622Z,19.50
2022-08-12T13:28:55.951Z,19.40
2022-08-12T13:31:25.186Z,19.30
2022-08-12T13:34:33.321Z,19.20
2022-08-12T13:36:40.991Z,19.10
2022-08-12T13:39:08.293Z,19.00
2022-08-12T13:41:35.859Z,18.90
2022-08-12T13:44:04.842Z,18.90
2022-08-12T13:46:31.811Z,18.90
2022-08-12T13:48:58.608Z,19.00
2022-08-12T13:51:25.340Z,18.90
2022-08-12T13:54:14.024Z,19.00
2022-08-12T13:56:40.935Z,19.00
2022-08-12T13:59:08.569Z,19.00
2022-08-12T14:01:40.275Z,19.00
2022-08-12T14:04:11.499Z,19.10
2022-08-12T14:06:39.336Z,19.20
2022-08-12T14:09:15.549Z,19.20
2022-08-12T14:11:51.341Z,19.20
2022-08-12T14:14:31.696Z,19.20
2022-08-12T14:17:05.553Z,19.30
2022-08-12T14:19:35.688Z,19.40
2022-08-12T14:22:10.388Z,19.40
2022-08-12T14:24:40.677Z,19.40
2022-08-12T14:27:10.086Z,19.40
2022-08-12T14:30:04.950Z,19.40
2022-08-12T14:32:35.207Z,19.50
2022-08-12T14:35:11.010Z,19.50
2022-08-12T14:37:55.565Z,19.50
2022-08-12T14:40:27.709Z,19.50
2022-08-12T14:42:55.259Z,19.40
2022-08-12T14:45:24.618Z,19.40
2022-08-12T14:48:11.647Z,19.40
2022-08-12T14:51:02.603Z,19.30
2022-08-12T14:59:23.904Z,19.30
2022-08-12T15:01:52.236Z,19.30
2022-08-12T15:04:24.554Z,19.40
2022-08-12T15:06:53.253Z,19.40
2022-08-12T15:09:29.068Z,19.50
2022-08-12T15:12:03.879Z,19.40
2022-08-12T15:14:31.708Z,19.50
2022-08-12T15:17:00.581Z,19.40
2022-08-12T15:20:27.929Z,19.40
2022-08-12T15:22:35.810Z,19.50
2022-08-12T15:25:07.890Z,19.50
2022-08-12T15:28:04.180Z,19.50
2022-08-12T15:30:30.406Z,19.60
2022-08-12T15:32:57.583Z,19.50
2022-08-12T15:35:27.452Z,19.50
2022-08-12T15:38:19.473Z,19.40
2022-08-12T15:40:49.430Z,19.40
2022-08-12T15:43:52.015Z,19.40
2022-08-12T15:46:04.787Z,19.40
2022-08-12T15:48:32.760Z,19.30
2022-08-12T15:51:00.370Z,19.30
2022-08-12T15:53:45.560Z,19.20
2022-08-12T15:56:22.156Z,19.10
2022-08-12T15:58:59.140Z,19.00
2022-08-12T16:01:34.042Z,19.00
2022-08-12T16:04:02.056Z,19.00
2022-08-12T16:07:00.524Z,18.90
2022-08-12T16:09:21.313Z,18.90
2022-08-12T16:11:48.735Z,18.80
2022-08-12T16:14:16.291Z,18.70
2022-08-12T16:16:43.190Z,18.60
2022-08-12T16:20:03.488Z,18.60
2022-08-12T16:22:07.133Z,18.50
2022-08-12T16:24:43.544Z,18.50
2022-08-12T16:27:13.538Z,18.50
2022-08-12T16:29:52.619Z,18.40
2022-08-12T16:32:24.371Z,18.40
2022-08-12T16:34:55.907Z,18.40
2022-08-12T16:38:04.647Z,18.40
2022-08-12T16:40:11.542Z,18.40
2022-08-12T16:42:39.467Z,18.40
2022-08-12T16:45:22.957Z,18.40
2022-08-12T16:48:00.625Z,18.40
2022-08-12T16:50:30.847Z,18.30
2022-08-12T16:53:02.169Z,18.30
2022-08-12T16:55:42.173Z,18.40
2022-08-12T16:58:13.483Z,18.40
2022-08-12T17:00:55.369Z,18.40
2022-08-12T17:03:28.634Z,18.60
2022-08-12T17:05:56.225Z,18.70
2022-08-12T17:08:29.126Z,18.80
2022-08-12T17:10:56.317Z,18.80
2022-08-12T17:13:26.222Z,18.90
2022-08-12T17:16:05.796Z,18.90
2022-08-12T17:18:43.412Z,18.80
2022-08-12T17:21:20.317Z,18.80
2022-08-12T17:24:10.897Z,18.70
2022-08-12T17:26:44.861Z,18.60
2022-08-12T17:29:18.684Z,18.60
2022-08-12T17:32:01.390Z,18.60
2022-08-12T17:34:50.552Z,18.60
2022-08-12T17:37:17.363Z,18.40
2022-08-12T17:40:13.766Z,18.40
2022-08-12T17:42:34.565Z,18.40
2022-08-12T17:45:17.216Z,18.50
2022-08-12T17:48:01.042Z,18.50
2022-08-12T17:50:34.464Z,18.50
2022-08-12T17:53:02.938Z,18.60
2022-08-12T17:55:43.118Z,18.60
2022-08-12T17:58:13.069Z,18.50
2022-08-12T18:00:43.666Z,18.50
2022-08-12T18:03:10.838Z,18.50
2022-08-12T18:05:43.666Z,18.50
2022-08-12T18:08:33.242Z,18.60
2022-08-12T18:12:04.526Z,18.50
2022-08-12T18:14:06.095Z,18.50
2022-08-12T18:16:34.562Z,18.40
2022-08-12T18:19:02.464Z,18.30
2022-08-12T18:22:00.974Z,18.30
2022-08-12T18:24:21.673Z,18.30
2022-08-12T18:26:49.288Z,18.30
2022-08-12T18:29:16.310Z,18.20
2022-08-12T18:31:44.260Z,18.20
2022-08-12T18:34:26.818Z,18.00
2022-08-12T18:36:55.633Z,17.90
2022-08-12T18:39:22.581Z,17.90
2022-08-12T18:41:49.341Z,17.90
2022-08-12T18:44:16.102Z,17.90
2022-08-12T18:46:55.936Z,17.90
2022-08-12T18:49:32.066Z,17.80
2022-08-12T18:52:04.234Z,17.80
2022-08-12T18:54:37.466Z,17.70
2022-08-12T18:57:19.564Z,17.70
2022-08-12T19:00:01.712Z,17.70
2022-08-12T19:02:36.408Z,17.60
2022-08-12T19:05:09.823Z,17.60
2022-08-12T19:07:49.275Z,17.50
2022-08-12T19:10:24.615Z,17.50
2022-08-12T19:13:10.525Z,17.50
2022-08-12T19:15:43.002Z,17.40
2022-08-12T19:18:10.250Z,17.40
2022-08-12T19:20:39.230Z,17.40
2022-08-12T19:23:16.085Z,17.30
2022-08-12T19:26:00.919Z,17.20
2022-08-12T19:28:35.461Z,17.10
2022-08-12T19:31:57.562Z,17.10
2022-08-12T19:36:14.339Z,17.00
2022-08-12T19:38:06.668Z,17.00
2022-08-12T19:40:34.539Z,17.00
2022-08-12T19:43:13.423Z,16.90
2022-08-12T19:45:56.558Z,16.80
2022-08-12T19:48:27.680Z,16.80
2022-08-12T19:50:57.407Z,16.80
2022-08-12T19:53:24.473Z,16.70
2022-08-12T19:55:54.364Z,16.70
2022-08-12T19:58:21.633Z,16.60
2022-08-12T20:00:53.519Z,16.60
2022-08-12T20:03:38.606Z,16.60
2022-08-12T20:06:16.045Z,16.50
2022-08-12T20:08:55.922Z,16.40
2022-08-12T20:12:10.016Z,16.30
2022-08-12T20:14:09.940Z,16.30
2022-08-12T20:16:58.046Z,16.30
2022-08-12T20:19:53.090Z,16.20
2022-08-12T20:22:24.048Z,16.20
2022-08-12T20:24:56.726Z,16.10
2022-08-12T20:27:29.627Z,16.10
2022-08-12T20:30:12.762Z,16.00
2022-08-12T20:33:00.716Z,16.00
2022-08-12T20:35:39.000Z,16.00
2022-08-12T20:38:27.308Z,16.00
2022-08-12T20:40:55.772Z,16.00
2022-08-12T20:43:28.165Z,15.90
2022-08-12T20:45:58.449Z,16.00
2022-08-12T20:48:29.463Z,15.90
2022-08-12T20:50:58.036Z,15.90
2022-08-12T20:53:54.206Z,15.90
2022-08-12T20:56:30.328Z,15.90
2022-08-12T20:58:58.773Z,15.90
2022-08-12T21:01:36.686Z,15.80
2022-08-12T21:04:30.870Z,15.80
2022-08-12T21:06:57.778Z,15.80
2022-08-12T21:09:32.652Z,15.90
2022-08-12T21:12:05.854Z,15.90
2022-08-12T21:14:56.730Z,15.80
2022-08-12T21:18:01.148Z,15.70
2022-08-12T21:20:22.510Z,15.60
2022-08-12T21:22:49.654Z,15.60
2022-08-12T21:25:17.404Z,15.60
2022-08-12T21:27:59.146Z,15.60
2022-08-12T21:30:34.220Z,15.60
2022-08-12T21:33:04.773Z,15.60
2022-08-12T21:35:40.071Z,15.50
2022-08-12T21:38:08.184Z,15.50
2022-08-12T21:40:37.222Z,15.50
2022-08-12T21:43:19.725Z,15.50
2022-08-12T21:46:00.648Z,15.50
2022-08-12T21:48:28.298Z,15.40
2022-08-12T21:50:56.378Z,15.40
2022-08-12T21:54:05.995Z,15.40
2022-08-12T21:56:10.810Z,15.40
2022-08-12T21:58:57.495Z,15.30
2022-08-12T22:01:24.253Z,15.30
2022-08-12T22:04:12.747Z,15.20
2022-08-12T22:06:43.812Z,15.10
2022-08-12T22:09:16.552Z,15.00
2022-08-12T22:11:49.323Z,15.00
2022-08-12T22:14:27.514Z,15.00
2022-08-12T22:16:54.843Z,15.00
2022-08-12T22:19:23.242Z,14.90
2022-08-12T22:21:54.971Z,14.90
2022-08-12T22:24:26.584Z,14.90
2022-08-12T22:27:22.835Z,14.90
2022-08-12T22:30:09.262Z,14.90
2022-08-12T22:32:55.284Z,15.00
2022-08-12T22:35:56.299Z,15.00
2022-08-12T22:38:24.280Z,14.90
2022-08-12T22:41:00.702Z,14.90
2022-08-12T22:43:59.140Z,14.90
2022-08-12T22:46:53.090Z,14.90
2022-08-12T22:49:36.368Z,14.90
2022-08-12T22:52:11.690Z,14.90
2022-08-12T22:54:46.363Z,14.90
2022-08-12T22:57:53.836Z,14.80
2022-08-12T23:00:24.556Z,14.80
2022-08-12T23:02:58.343Z,14.80
2022-08-12T23:05:56.719Z,14.80
2022-08-12T23:08:18.029Z,14.70
2022-08-12T23:10:45.796Z,14.60
2022-08-12T23:13:43.097Z,14.50
2022-08-12T23:16:28.455Z,14.50
2022-08-12T23:18:59.055Z,14.50
2022-08-12T23:21:26.599Z,14.50
2022-08-12T23:24:14.386Z,14.50
2022-08-12T23:27:02.776Z,14.60
2022-08-12T23:29:43.867Z,14.60
2022-08-12T23:32:35.348Z,14.50
2022-08-12T23:35:07.328Z,14.60
2022-08-12T23:37:47.473Z,14.60
2022-08-12T23:40:22.366Z,14.60
2022-08-12T23:42:54.045Z,14.60
2022-08-12T23:45:31.602Z,14.60
2022-08-12T23:48:01.332Z,14.50
2022-08-12T23:50:34.336Z,14.50
2022-08-12T23:53:05.646Z,14.40
2022-08-12T23:55:35.865Z,14.40
2022-08-12T23:58:22.993Z,14.40
